createdAt,value
2022-11-21T07:15:03.070Z,21.7
2022-11-21T07:30:07.509Z,22.1
2022-11-21T07:45:02.984Z,22.2
2022-11-21T08:00:09.711Z,22.3
2022-11-21T08:15:02.694Z,22.4
2022-11-21T08:30:17.722Z,22.4
2022-11-21T08:45:03.495Z,22.5
2022-11-21T09:00:10.429Z,22.6
2022-11-21T09:15:04.164Z,22.6
2022-11-21T09:30:09.580Z,22.7
2022-11-21T09:45:02.436Z,22.8
2022-11-21T10:00:08.811Z,22.8
2022-11-21T10:15:04.752Z,22.9
2022-11-21T10:30:10.242Z,22.9
2022-11-21T10:45:04.876Z,23.0
2022-11-21T11:00:08.911Z,23.1
2022-11-21T11:15:02.254Z,23.1
2022-11-21T11:30:09.785Z,23.1
2022-11-21T11:45:04.214Z,23.2
2022-11-21T12:00:08.150Z,23.2
2022-11-21T12:15:03.158Z,23.3
2022-11-21T12:30:08.018Z,23.3
2022-11-21T12:45:02.759Z,23.4
2022-11-21T13:00:06.318Z,23.5
2022-11-21T13:15:03.421Z,23.5
2022-11-21T13:30:09.242Z,23.5
2022-11-21T13:45:03.377Z,23.6
2022-11-21T14:00:07.841Z,23.6
2022-11-21T14:15:03.351Z,23.7
2022-11-21T14:30:13.074Z,23.7
2022-11-21T14:45:02.646Z,23.7
2022-11-21T15:00:09.622Z,23.7
2022-11-21T15:15:02.550Z,23.7
2022-11-21T15:30:12.749Z,23.6
2022-11-21T15:45:04.187Z,23.5
2022-11-21T16:00:09.843Z,23.5
2022-11-21T16:15:05.002Z,23.4
2022-11-21T16:30:10.427Z,23.4
2022-11-21T16:45:04.933Z,23.3
2022-11-21T17:00:07.762Z,23.2
2022-11-21T17:15:02.072Z,23.2
2022-11-21T17:30:08.318Z,23.1
2022-11-21T17:45:02.935Z,23.1
2022-11-21T18:00:06.368Z,23.1
2022-11-21T18:15:01.848Z,23.1
2022-11-21T18:30:07.525Z,23.0
2022-11-21T18:45:02.477Z,23
2022-11-21T19:00:08.246Z,22.9
2022-11-21T19:15:02.140Z,22.9
2022-11-21T19:30:07.934Z,22.8
2022-11-21T19:45:01.907Z,22.8
2022-11-21T20:00:07.162Z,22.7
2022-11-21T20:15:04.411Z,22.7
2022-11-21T20:30:10.879Z,22.7
2022-11-21T21:00:07.089Z,22.6
2022-11-21T21:15:03.184Z,22.6
2022-11-21T21:30:07.785Z,22.6
2022-11-21T21:45:04.422Z,22.6
2022-11-21T22:00:09.242Z,22.6
2022-11-21T22:15:02.014Z,22.5
2022-11-21T22:30:06.143Z,22.5
2022-11-21T22:45:03.152Z,22.5
2022-11-21T23:00:07.781Z,22.5
2022-11-21T23:15:02.884Z,22.5
2022-11-21T23:30:06.549Z,22.5
2022-11-21T23:45:03.715Z,22.4
